createdAt,value
2022-09-15T00:00:00.705Z,1.73
2022-09-15T00:02:27.389Z,1.55
2022-09-15T00:04:54.095Z,2.30
2022-09-15T00:07:20.702Z,2.23
2022-09-15T00:09:47.274Z,2.30
2022-09-15T00:12:13.857Z,2.17
2022-09-15T00:14:40.544Z,1.90
2022-09-15T00:17:07.132Z,1.70
2022-09-15T00:19:33.711Z,2.00
2022-09-15T00:22:00.259Z,1.65
2022-09-15T00:24:26.911Z,2.10
2022-09-15T00:26:53.480Z,1.92
2022-09-15T00:29:20.135Z,2.10
2022-09-15T00:31:46.686Z,1.97
2022-09-15T00:34:14.020Z,2.40
2022-09-15T00:36:40.808Z,1.92
2022-09-15T00:39:07.482Z,2.13
2022-09-15T00:41:35.729Z,2.28
2022-09-15T00:44:04.071Z,2.27
2022-09-15T00:46:43.440Z,2.33
2022-09-15T00:49:18.097Z,1.85
2022-09-15T00:51:49.275Z,1.77
2022-09-15T00:54:26.754Z,2.13
2022-09-15T00:56:55.204Z,2.23
2022-09-15T00:59:26.021Z,2.95
2022-09-15T01:02:00.634Z,2.20
2022-09-15T01:04:27.518Z,2.75
2022-09-15T01:06:58.435Z,3.40
2022-09-15T01:09:34.552Z,2.73
2022-09-15T01:12:02.544Z,2.83
2022-09-15T01:14:29.088Z,2.85
2022-09-15T01:17:20.911Z,2.80
2022-09-15T01:20:09.982Z,3.10
2022-09-15T01:22:46.062Z,2.57
2022-09-15T01:26:04.544Z,2.60
2022-09-15T01:28:33.919Z,3.00
2022-09-15T01:31:08.167Z,2.63
2022-09-15T01:33:44.571Z,2.78
2022-09-15T01:36:34.164Z,3.10
2022-09-15T01:39:13.008Z,3.20
2022-09-15T01:41:58.175Z,2.58
2022-09-15T01:44:39.741Z,3.28
2022-09-15T01:47:09.863Z,3.00
2022-09-15T01:50:20.968Z,2.73
2022-09-15T01:52:49.884Z,2.47
2022-09-15T01:55:22.745Z,2.63
2022-09-15T01:57:50.166Z,2.30
2022-09-15T02:00:16.803Z,2.60
2022-09-15T02:02:48.750Z,2.60
2022-09-15T02:05:44.904Z,2.53
2022-09-15T02:08:25.356Z,2.47
2022-09-15T02:11:06.765Z,2.60
2022-09-15T02:14:05.660Z,2.83
2022-09-15T02:16:36.465Z,2.47
2022-09-15T02:19:11.995Z,2.10
2022-09-15T02:21:59.207Z,1.98
2022-09-15T02:24:42.074Z,2.63
2022-09-15T02:27:15.532Z,2.20
2022-09-15T02:29:45.001Z,2.40
2022-09-15T02:32:13.703Z,2.60
2022-09-15T02:34:44.204Z,2.00
2022-09-15T02:37:12.644Z,1.90
2022-09-15T02:39:45.498Z,1.92
2022-09-15T02:42:12.670Z,1.90
2022-09-15T02:44:39.212Z,2.20
2022-09-15T02:47:05.964Z,2.13
2022-09-15T02:49:32.583Z,1.70
2022-09-15T02:51:59.131Z,2.13
2022-09-15T02:54:25.683Z,1.90
2022-09-15T02:56:52.231Z,2.00
2022-09-15T02:59:18.780Z,2.00
2022-09-15T03:01:45.361Z,1.90
2022-09-15T03:04:12.006Z,2.00
2022-09-15T03:06:38.608Z,2.00
2022-09-15T03:09:07.531Z,1.50
2022-09-15T03:11:35.556Z,1.60
2022-09-15T03:14:05.723Z,1.60
2022-09-15T03:16:35.728Z,1.90
2022-09-15T03:19:03.545Z,1.40
2022-09-15T03:21:30.546Z,2.03
2022-09-15T03:23:57.873Z,2.25
2022-09-15T03:26:24.755Z,1.55
2022-09-15T03:28:51.471Z,1.40
2022-09-15T03:31:19.763Z,1.80
2022-09-15T03:33:47.248Z,1.70
2022-09-15T03:36:14.261Z,1.45
2022-09-15T03:38:40.965Z,1.50
2022-09-15T03:41:10.960Z,1.83
2022-09-15T03:43:38.118Z,1.70
2022-09-15T03:46:07.027Z,1.40
2022-09-15T03:48:35.701Z,1.80
2022-09-15T03:51:05.750Z,1.65
2022-09-15T03:53:36.388Z,1.60
2022-09-15T03:56:22.725Z,1.80
2022-09-15T03:58:49.765Z,2.15
2022-09-15T04:01:18.663Z,1.50
2022-09-15T04:03:50.656Z,1.70
2022-09-15T04:06:20.878Z,1.70
2022-09-15T04:08:48.623Z,1.73
2022-09-15T04:11:16.016Z,2.20
2022-09-15T04:13:44.042Z,1.63
2022-09-15T04:16:17.535Z,1.48
2022-09-15T04:18:44.596Z,1.90
2022-09-15T04:21:14.383Z,1.70
2022-09-15T04:23:42.173Z,1.70
2022-09-15T04:26:18.787Z,1.58
2022-09-15T04:28:45.486Z,1.60
2022-09-15T04:31:13.976Z,1.50
2022-09-15T04:33:42.553Z,1.90
2022-09-15T04:36:18.144Z,1.45
2022-09-15T04:38:45.665Z,1.40
2022-09-15T04:41:14.119Z,1.65
2022-09-15T04:43:41.461Z,1.60
2022-09-15T04:46:08.274Z,1.30
2022-09-15T04:48:35.412Z,1.67
2022-09-15T04:51:07.612Z,1.95
2022-09-15T04:53:35.651Z,1.55
2022-09-15T04:56:14.067Z,1.40
2022-09-15T04:58:49.685Z,1.40
2022-09-15T05:01:31.254Z,1.73
2022-09-15T05:03:57.883Z,1.90
2022-09-15T05:06:27.051Z,1.52
2022-09-15T05:08:56.571Z,1.45
2022-09-15T05:11:24.259Z,1.30
2022-09-15T05:13:50.871Z,1.95
2022-09-15T05:16:20.357Z,1.55
2022-09-15T05:18:48.711Z,1.85
2022-09-15T05:21:17.388Z,1.58
2022-09-15T05:23:44.673Z,1.70
2022-09-15T05:26:13.979Z,1.35
2022-09-15T05:28:40.900Z,1.50
2022-09-15T05:31:14.443Z,1.40
2022-09-15T05:33:40.999Z,1.52
2022-09-15T05:36:07.638Z,1.10
2022-09-15T05:38:34.220Z,1.35
2022-09-15T05:41:03.717Z,1.50
2022-09-15T05:43:32.174Z,1.77
2022-09-15T05:45:58.720Z,1.40
2022-09-15T05:48:25.584Z,1.40
2022-09-15T05:50:53.731Z,1.63
2022-09-15T05:53:20.664Z,1.63
2022-09-15T05:55:47.550Z,1.45
2022-09-15T05:58:14.868Z,1.65
2022-09-15T06:00:41.886Z,1.63
2022-09-15T06:03:14.633Z,1.40
2022-09-15T06:05:41.766Z,1.80
2022-09-15T06:08:08.595Z,1.40
2022-09-15T06:10:35.584Z,1.83
2022-09-15T06:13:02.167Z,1.83
2022-09-15T06:15:28.715Z,2.05
2022-09-15T06:17:55.256Z,1.58
2022-09-15T06:20:22.312Z,1.75
2022-09-15T06:22:48.983Z,1.50
2022-09-15T06:25:15.683Z,1.70
2022-09-15T06:27:42.447Z,1.30
2022-09-15T06:30:10.091Z,1.63
2022-09-15T06:32:36.715Z,1.38
2022-09-15T06:35:07.788Z,1.55
2022-09-15T06:37:35.181Z,1.40
2022-09-15T06:40:03.015Z,1.55
2022-09-15T06:42:29.723Z,1.80
2022-09-15T06:44:56.303Z,1.13
2022-09-15T06:47:23.271Z,1.13
2022-09-15T06:49:49.843Z,1.40
2022-09-15T06:52:16.451Z,1.65
2022-09-15T06:54:43.020Z,1.50
2022-09-15T06:57:09.937Z,1.40
2022-09-15T06:59:36.473Z,1.60
2022-09-15T07:02:05.341Z,1.50
2022-09-15T07:04:33.760Z,1.45
2022-09-15T07:07:00.499Z,1.42
2022-09-15T07:09:27.065Z,1.40
2022-09-15T07:11:53.620Z,1.42
2022-09-15T07:14:20.167Z,1.67
2022-09-15T07:16:46.775Z,1.33
2022-09-15T07:19:13.381Z,1.85
2022-09-15T07:21:39.970Z,1.50
2022-09-15T07:24:07.689Z,1.55
2022-09-15T07:26:34.970Z,1.60
2022-09-15T07:29:05.059Z,1.70
2022-09-15T07:31:33.785Z,1.70
2022-09-15T07:34:01.063Z,1.75
2022-09-15T07:36:28.324Z,1.65
2022-09-15T07:38:54.935Z,1.50
2022-09-15T07:41:28.155Z,2.00
2022-09-15T07:43:57.115Z,1.48
2022-09-15T07:46:25.664Z,1.63
2022-09-15T07:48:56.305Z,1.33
2022-09-15T07:51:23.650Z,1.30
2022-09-15T07:53:50.858Z,1.25
2022-09-15T07:56:20.533Z,0.75
2022-09-15T07:58:48.050Z,1.40
2022-09-15T08:01:15.844Z,1.38
2022-09-15T08:03:43.950Z,1.10
2022-09-15T08:06:11.330Z,1.50
2022-09-15T08:08:39.097Z,1.10
2022-09-15T08:11:07.675Z,1.48
2022-09-15T08:13:34.703Z,1.30
2022-09-15T08:16:13.310Z,1.33
2022-09-15T08:18:44.397Z,1.30
2022-09-15T08:21:14.820Z,1.50
2022-09-15T08:23:41.686Z,2.08
2022-09-15T08:26:13.867Z,1.45
2022-09-15T08:28:42.051Z,1.53
2022-09-15T08:31:11.332Z,1.33
2022-09-15T08:33:41.961Z,1.40
2022-09-15T08:36:12.004Z,1.45
2022-09-15T08:38:46.811Z,1.40
2022-09-15T08:41:36.185Z,1.80
2022-09-15T08:44:25.140Z,1.35
2022-09-15T08:47:04.275Z,1.67
2022-09-15T08:49:51.489Z,1.30
2022-09-15T08:52:28.428Z,1.50
2022-09-15T08:54:57.188Z,1.23
2022-09-15T08:57:25.840Z,1.90
2022-09-15T08:59:54.379Z,1.58
2022-09-15T09:02:33.054Z,1.40
2022-09-15T09:05:21.363Z,1.63
2022-09-15T09:08:05.711Z,1.50
2022-09-15T09:10:54.083Z,1.17
2022-09-15T09:14:00.177Z,1.60
2022-09-15T09:17:08.092Z,1.10
2022-09-15T09:20:03.613Z,1.52
2022-09-15T09:22:34.331Z,1.40
2022-09-15T09:25:08.534Z,1.10
2022-09-15T09:27:43.294Z,1.13
2022-09-15T09:30:17.440Z,1.60
2022-09-15T09:33:02.881Z,1.20
2022-09-15T09:35:42.821Z,1.03
2022-09-15T09:38:19.396Z,1.25
2022-09-15T09:40:46.760Z,1.40
2022-09-15T09:43:13.427Z,1.63
2022-09-15T09:45:40.082Z,1.60
2022-09-15T09:48:20.872Z,1.40
2022-09-15T09:50:49.520Z,1.45
2022-09-15T09:53:28.573Z,1.40
2022-09-15T09:56:15.144Z,1.55
2022-09-15T09:58:41.770Z,1.50
2022-09-15T10:01:20.606Z,1.30
2022-09-15T10:03:47.416Z,1.80
2022-09-15T10:06:20.532Z,1.70
2022-09-15T10:09:04.684Z,1.30
2022-09-15T10:11:52.833Z,1.50
2022-09-15T10:14:20.859Z,1.47
2022-09-15T10:17:04.127Z,1.67
2022-09-15T10:19:54.130Z,2.03
2022-09-15T10:22:28.996Z,1.20
2022-09-15T10:24:56.511Z,1.95
2022-09-15T10:27:29.445Z,1.93
2022-09-15T10:29:58.704Z,1.40
2022-09-15T10:32:28.560Z,1.70
2022-09-15T10:35:06.609Z,1.55
2022-09-15T10:38:08.772Z,1.95
2022-09-15T10:40:56.388Z,1.90
2022-09-15T10:43:53.073Z,1.77
2022-09-15T10:46:50.420Z,1.58
2022-09-15T10:49:35.749Z,1.55
2022-09-15T10:52:21.040Z,1.40
2022-09-15T10:55:14.263Z,1.87
2022-09-15T10:58:12.610Z,1.80
2022-09-15T11:00:46.306Z,1.63
2022-09-15T11:03:34.503Z,1.90
2022-09-15T11:06:09.690Z,1.70
2022-09-15T11:09:06.895Z,1.87
2022-09-15T11:11:50.959Z,1.70
2022-09-15T11:15:02.962Z,1.77
2022-09-15T11:17:59.807Z,1.75
2022-09-15T11:20:47.820Z,1.80
2022-09-15T11:23:23.894Z,1.50
2022-09-15T11:25:56.853Z,1.85
2022-09-15T11:28:35.712Z,1.40
2022-09-15T11:31:13.291Z,1.70
2022-09-15T11:33:55.275Z,1.50
2022-09-15T11:36:43.388Z,1.93
2022-09-15T11:39:31.271Z,1.77
2022-09-15T11:42:08.160Z,1.40
2022-09-15T11:44:41.356Z,1.42
2022-09-15T11:47:38.587Z,1.98
2022-09-15T11:50:11.189Z,1.40
2022-09-15T11:52:57.978Z,1.63
2022-09-15T11:55:51.415Z,1.50
2022-09-15T11:58:28.172Z,1.60
2022-09-15T12:01:17.191Z,1.13
2022-09-15T12:03:59.359Z,1.20
2022-09-15T12:06:46.276Z,1.42
2022-09-15T12:09:18.112Z,1.50
2022-09-15T12:11:47.582Z,1.40
2022-09-15T12:14:27.852Z,1.40
2022-09-15T12:16:55.525Z,1.13
2022-09-15T12:19:42.900Z,1.30
2022-09-15T12:22:18.043Z,1.30
2022-09-15T12:25:08.163Z,1.67
2022-09-15T12:27:34.831Z,1.20
2022-09-15T12:30:01.551Z,1.57
2022-09-15T12:32:35.080Z,1.50
2022-09-15T12:35:17.515Z,1.42
2022-09-15T12:37:52.643Z,1.15
2022-09-15T12:40:35.400Z,1.60
2022-09-15T12:43:12.708Z,1.20
2022-09-15T12:45:42.823Z,1.10
2022-09-15T12:48:21.300Z,1.67
2022-09-15T12:51:04.859Z,2.25
2022-09-15T12:54:07.291Z,1.42
2022-09-15T12:56:34.968Z,1.77
2022-09-15T12:59:06.942Z,1.63
2022-09-15T13:01:50.370Z,1.73
2022-09-15T13:04:41.242Z,1.38
2022-09-15T13:07:19.700Z,1.35
2022-09-15T13:10:15.065Z,1.37
2022-09-15T13:12:49.369Z,1.55
2022-09-15T13:15:17.491Z,1.52
2022-09-15T13:17:46.248Z,1.40
2022-09-15T13:20:22.648Z,1.65
2022-09-15T13:22:52.334Z,1.40
2022-09-15T13:25:26.161Z,1.98
2022-09-15T13:27:56.624Z,2.05
2022-09-15T13:30:44.103Z,1.85
2022-09-15T13:35:02.487Z,1.45
2022-09-15T13:40:02.719Z,1.33
2022-09-15T13:43:01.596Z,1.40
2022-09-15T13:45:59.516Z,1.20
2022-09-15T13:48:49.768Z,1.33
2022-09-15T13:51:30.911Z,1.45
2022-09-15T13:54:05.179Z,1.45
2022-09-15T13:56:39.825Z,1.30
2022-09-15T13:59:16.297Z,1.30
2022-09-15T14:01:44.447Z,1.50
2022-09-15T14:04:16.584Z,1.60
2022-09-15T14:06:45.611Z,1.77
2022-09-15T14:09:16.967Z,1.70
2022-09-15T14:11:46.569Z,1.52
2022-09-15T14:14:38.557Z,1.52
2022-09-15T14:17:05.862Z,1.40
2022-09-15T14:19:36.364Z,1.40
2022-09-15T14:22:21.675Z,1.27
2022-09-15T14:24:50.634Z,1.00
2022-09-15T14:27:25.795Z,1.25
2022-09-15T14:29:57.722Z,1.23
2022-09-15T14:32:26.570Z,1.08
2022-09-15T14:34:54.589Z,1.30
2022-09-15T14:37:31.375Z,1.23
2022-09-15T14:40:00.352Z,1.20
2022-09-15T14:42:30.896Z,1.50
2022-09-15T14:48:01.315Z,1.15
2022-09-15T14:50:32.881Z,1.38
2022-09-15T14:53:16.159Z,1.50
2022-09-15T14:56:07.190Z,1.33
2022-09-15T14:58:56.393Z,1.35
2022-09-15T15:01:33.596Z,1.25
2022-09-15T15:04:29.771Z,1.30
2022-09-15T15:07:10.307Z,1.48
2022-09-15T15:09:46.944Z,1.53
2022-09-15T15:12:22.184Z,1.75
2022-09-15T15:14:49.328Z,1.50
2022-09-15T15:17:47.779Z,1.42
2022-09-15T15:20:21.944Z,1.75
2022-09-15T15:23:10.759Z,1.37
2022-09-15T15:25:37.716Z,1.48
2022-09-15T15:28:05.752Z,2.15
2022-09-15T15:30:44.799Z,1.55
2022-09-15T15:33:44.645Z,1.40
2022-09-15T15:36:14.168Z,1.67
2022-09-15T15:38:54.316Z,1.63
2022-09-15T15:41:24.136Z,1.30
2022-09-15T15:44:07.911Z,1.58
2022-09-15T15:46:49.784Z,1.40
2022-09-15T15:49:17.212Z,1.73
2022-09-15T15:51:44.699Z,1.27
2022-09-15T15:54:11.642Z,1.48
2022-09-15T15:56:38.260Z,1.25
2022-09-15T15:59:05.719Z,1.38
2022-09-15T16:01:32.799Z,1.10
2022-09-15T16:03:59.399Z,1.33
2022-09-15T16:06:26.086Z,1.40
2022-09-15T16:08:52.723Z,1.35
2022-09-15T16:11:20.780Z,1.20
2022-09-15T16:13:48.242Z,1.20
2022-09-15T16:16:24.179Z,1.48
2022-09-15T16:18:50.957Z,1.95
2022-09-15T16:21:45.284Z,1.27
2022-09-15T16:24:14.787Z,1.30
2022-09-15T16:26:42.004Z,1.00
2022-09-15T16:29:08.800Z,1.15
2022-09-15T16:31:35.664Z,1.10
2022-09-15T16:34:02.407Z,1.23
2022-09-15T16:36:30.821Z,1.13
2022-09-15T16:38:57.350Z,1.27
2022-09-15T16:41:25.453Z,1.10
2022-09-15T16:43:55.892Z,1.25
2022-09-15T16:46:22.746Z,1.10
2022-09-15T16:48:49.464Z,1.30
2022-09-15T16:51:30.685Z,1.30
2022-09-15T16:53:57.986Z,1.13
2022-09-15T16:56:24.573Z,1.10
2022-09-15T16:58:58.797Z,1.23
2022-09-15T17:01:26.412Z,1.05
2022-09-15T17:03:52.961Z,1.20
2022-09-15T17:06:20.908Z,1.10
2022-09-15T17:08:47.585Z,1.05
2022-09-15T17:11:16.851Z,1.25
2022-09-15T17:13:44.590Z,1.65
2022-09-15T17:16:14.726Z,1.00
2022-09-15T17:18:41.343Z,1.30
2022-09-15T17:21:13.987Z,1.17
2022-09-15T17:23:44.140Z,1.00
2022-09-15T17:26:13.767Z,1.13
2022-09-15T17:28:41.028Z,1.40
2022-09-15T17:31:17.092Z,1.20
2022-09-15T17:33:44.307Z,1.05
2022-09-15T17:36:11.512Z,1.38
2022-09-15T17:38:40.520Z,1.30
2022-09-15T17:41:18.530Z,1.03
2022-09-15T17:43:45.267Z,1.67
2022-09-15T17:46:12.102Z,1.30
2022-09-15T17:48:38.945Z,1.10
2022-09-15T17:51:14.164Z,1.70
2022-09-15T17:53:40.724Z,1.27
2022-09-15T17:56:07.376Z,1.20
2022-09-15T17:58:34.052Z,1.50
2022-09-15T18:01:00.651Z,1.33
2022-09-15T18:03:31.456Z,1.00
2022-09-15T18:06:00.431Z,1.20
2022-09-15T18:08:27.755Z,1.27
2022-09-15T18:10:54.887Z,1.13
2022-09-15T18:13:26.387Z,1.25
2022-09-15T18:15:54.269Z,1.30
2022-09-15T18:18:23.795Z,1.20
2022-09-15T18:20:51.723Z,1.30
2022-09-15T18:23:23.867Z,1.25
2022-09-15T18:25:51.058Z,1.38
2022-09-15T18:28:18.635Z,1.50
2022-09-15T18:30:50.113Z,1.43
2022-09-15T18:33:25.563Z,1.58
2022-09-15T18:35:54.504Z,1.30
2022-09-15T18:38:22.521Z,1.45
2022-09-15T18:40:53.196Z,1.60
2022-09-15T18:43:21.058Z,1.30
2022-09-15T18:45:48.174Z,1.05
2022-09-15T18:48:15.023Z,1.38
2022-09-15T18:50:43.500Z,1.40
2022-09-15T18:53:10.235Z,1.17
2022-09-15T18:55:36.825Z,1.30
2022-09-15T18:58:03.477Z,1.73
2022-09-15T19:00:30.020Z,1.00
2022-09-15T19:02:58.357Z,1.25
2022-09-15T19:05:26.649Z,1.08
2022-09-15T19:07:53.446Z,1.13
2022-09-15T19:10:20.204Z,1.13
2022-09-15T19:12:48.287Z,1.10
2022-09-15T19:15:15.443Z,1.00
2022-09-15T19:17:43.325Z,1.17
2022-09-15T19:20:12.459Z,1.33
2022-09-15T19:22:39.575Z,1.13
2022-09-15T19:25:07.943Z,1.08
2022-09-15T19:27:35.013Z,1.23
2022-09-15T19:30:01.831Z,0.75
2022-09-15T19:32:28.475Z,1.33
2022-09-15T19:34:55.023Z,1.25
2022-09-15T19:37:22.202Z,1.20
2022-09-15T19:39:50.404Z,1.27
2022-09-15T19:42:17.404Z,1.13
2022-09-15T19:44:44.784Z,1.47
2022-09-15T19:47:11.442Z,1.10
2022-09-15T19:49:38.483Z,1.20
2022-09-15T19:52:06.301Z,1.33
2022-09-15T19:54:34.259Z,1.42
2022-09-15T19:57:01.096Z,1.10
2022-09-15T19:59:31.243Z,1.30
2022-09-15T20:01:59.018Z,1.52
2022-09-15T20:04:26.401Z,1.40
2022-09-15T20:06:52.972Z,1.27
2022-09-15T20:09:19.580Z,1.00
2022-09-15T20:11:46.344Z,1.20
2022-09-15T20:14:13.596Z,1.20
2022-09-15T20:16:40.495Z,1.30
2022-09-15T20:19:07.240Z,1.08
2022-09-15T20:21:49.735Z,1.57
2022-09-15T20:24:18.105Z,1.30
2022-09-15T20:26:44.685Z,1.65
2022-09-15T20:29:11.805Z,1.50
2022-09-15T20:31:38.708Z,1.08
2022-09-15T20:34:05.587Z,1.33
2022-09-15T20:36:35.917Z,1.17
2022-09-15T20:39:04.488Z,1.40
2022-09-15T20:41:31.919Z,1.35
2022-09-15T20:43:58.972Z,1.20
2022-09-15T20:46:25.678Z,1.40
2022-09-15T20:48:52.575Z,1.60
2022-09-15T20:51:25.477Z,1.75
2022-09-15T20:53:54.573Z,1.38
2022-09-15T20:56:25.218Z,1.15
2022-09-15T20:58:56.684Z,1.37
2022-09-15T21:01:28.740Z,1.27
2022-09-15T21:03:55.830Z,1.40
2022-09-15T21:06:24.974Z,1.48
2022-09-15T21:08:52.934Z,1.40
2022-09-15T21:11:21.247Z,1.10
2022-09-15T21:13:48.576Z,1.55
2022-09-15T21:16:18.316Z,1.33
2022-09-15T21:18:45.793Z,1.30
2022-09-15T21:21:15.216Z,1.35
2022-09-15T21:23:47.687Z,1.50
2022-09-15T21:26:16.755Z,1.08
2022-09-15T21:28:44.144Z,1.40
2022-09-15T21:31:19.138Z,1.45
2022-09-15T21:33:47.505Z,1.50
2022-09-15T21:36:22.360Z,1.57
2022-09-15T21:38:53.936Z,1.38
2022-09-15T21:41:23.243Z,1.35
2022-09-15T21:43:55.364Z,1.30
2022-09-15T21:46:24.404Z,1.50
2022-09-15T21:48:51.653Z,1.37
2022-09-15T21:51:24.349Z,1.58
2022-09-15T21:53:53.268Z,1.20
2022-09-15T21:56:20.283Z,1.38
2022-09-15T21:58:46.827Z,1.42
2022-09-15T22:01:19.240Z,1.47
2022-09-15T22:03:55.156Z,1.67
2022-09-15T22:06:27.679Z,1.25
2022-09-15T22:08:55.315Z,1.10
2022-09-15T22:11:23.086Z,1.50
2022-09-15T22:13:49.974Z,1.67
2022-09-15T22:16:19.338Z,1.52
2022-09-15T22:18:46.221Z,1.77
2022-09-15T22:21:18.575Z,1.50
2022-09-15T22:23:46.468Z,1.80
2022-09-15T22:26:16.227Z,1.90
2022-09-15T22:28:43.530Z,1.60
2022-09-15T22:31:11.680Z,1.50
2022-09-15T22:33:40.874Z,1.38
2022-09-15T22:36:15.237Z,1.75
2022-09-15T22:38:41.953Z,1.60
2022-09-15T22:41:11.925Z,1.35
2022-09-15T22:43:39.873Z,1.50
2022-09-15T22:46:07.072Z,1.85
2022-09-15T22:48:36.685Z,1.30
2022-09-15T22:51:06.937Z,1.60
2022-09-15T22:53:33.599Z,1.25
2022-09-15T22:56:15.463Z,1.50
2022-09-15T22:58:43.854Z,1.33
2022-09-15T23:01:25.610Z,1.80
2022-09-15T23:03:53.403Z,1.77
2022-09-15T23:06:20.513Z,1.95
2022-09-15T23:08:51.699Z,1.60
2022-09-15T23:11:18.733Z,1.42
2022-09-15T23:13:45.530Z,1.38
2022-09-15T23:16:12.242Z,1.50
2022-09-15T23:18:38.909Z,1.20
2022-09-15T23:21:10.484Z,1.30
2022-09-15T23:23:39.205Z,1.08
2022-09-15T23:26:08.369Z,1.10
2022-09-15T23:28:35.745Z,1.43
2022-09-15T23:31:02.896Z,1.20
2022-09-15T23:33:34.249Z,1.50
2022-09-15T23:36:02.999Z,1.40
2022-09-15T23:38:30.360Z,1.00
2022-09-15T23:40:57.269Z,1.87
2022-09-15T23:43:23.829Z,1.23
2022-09-15T23:45:51.120Z,1.20
2022-09-15T23:48:17.834Z,1.30
2022-09-15T23:50:44.534Z,1.50
2022-09-15T23:53:11.291Z,1.70
2022-09-15T23:55:37.854Z,1.40
2022-09-15T23:58:05.060Z,1.73
